Details From EGKB - Biggin Hill
To EGGW - London Luton
Flight Number -
Tags decoded
Created
Modified
Stats Distance 38 nm / 70 km
Max Altitude 0 ft / 0 m
Waypoints 3
Social Downloads 0
Likes 0
Share VATSIM

Download

Looking for another format? Having issues loading an existing format? Contact us
Advertisement - Login to hide

Notes

Requested: EGKB HEMEL EGGW

Route

EGKB HEMEL EGGW

ID Type Via Altitude Latitude Longitude Leg Dist Tot Dist Heading (true) Name
O EGKB APT - 0 ft / 0 m 51.32671˚ 0.03288˚ - 0 nm - Biggin Hill
HEMEL FIX - 0 ft / 0 m 51.80556˚ -0.41944˚ 33 nm 33 nm 330° / 329° -
O EGGW APT - 0 ft / 0 m 51.87463˚ -0.36845˚ 4 nm 37 nm 24° / 25° London Luton

Altitude Profile

Advertisement - Login to hide

EGKB

Details ICAO EGKB (BQH)
Name Biggin Hill
Region United Kingdom
Timezone Europe/London (UTC+1.0)
Stats Elevation 598 ft / 182 m (AMSL)
Location 51.326710° 0.032876°
Runways 2
Magnetic Variation 0.309° W

METAR

EGKB 240950Z 02008KT 340V050 3000 HZ BKN008 14/12 Q1020

Decode

TAF

Not found

Departure Runways

ID Width Length Bearing (true) Bearing (mag) Surface Threshold Offset Overrun Length
03 148 ft / 45 m 5,915 ft / 1,803 m 25.53° 25.84° Asphalt 804 ft / 245 m 0 ft / 0 m
11 59 ft / 18 m 2,579 ft / 786 m 105.47° 105.78° Asphalt 0 ft / 0 m 0 ft / 0 m
21 148 ft / 45 m 5,915 ft / 1,803 m 205.53° 205.84° Asphalt 0 ft / 0 m 0 ft / 0 m
29 59 ft / 18 m 2,579 ft / 786 m 285.48° 285.79° Asphalt 0 ft / 0 m 0 ft / 0 m

EGGW

Details ICAO EGGW (LTN)
Name London Luton
Region United Kingdom
Timezone Europe/London (UTC+1.0)
Stats Elevation 526 ft / 160 m (AMSL)
Location 51.874629° -0.368450°
Runways 1
Magnetic Variation 0.507° W

METAR

EGGW 240950Z AUTO 03014KT 7000 OVC004 12/11 Q1021

Decode

TAF

TAF AMD EGGW 240858Z 2409/2506 02010KT 6000 OVC003 BECMG 2409/2412 9999 SCT020 TEMPO 2416/2506 6000 SHRA PROB30 TEMPO 2416/2501 3000 +SHRA BECMG 2423/2502 6000 BKN005 TEMPO 2423/2506 3000 BR BKN002 PROB40 2502/2506 0300 FG BKN000

Decode

Destination Runways

ID Width Length Bearing (true) Bearing (mag) Surface Threshold Offset Overrun Length
08 151 ft / 46 m 7,066 ft / 2,154 m 74.35° 74.86° Asphalt 0 ft / 0 m 200 ft / 61 m
26 151 ft / 46 m 7,066 ft / 2,154 m 254.38° 254.89° Asphalt 272 ft / 83 m 0 ft / 0 m

Approach Navaids

Runway Type Ident Frequency Range Bearing (true) Bearing (mag) Slope Elevation
08 Localiser ILTN 109.15 MHz 18 nm / 33 km 74.37° 74.88° - 526 ft / 160 m (AMSL)
08 Glidescope ILTN 109.15 MHz 10 nm / 19 km 74.36° 74.87° 3.00° 526 ft / 160 m (AMSL)
08 DME ILTN 109.15 MHz 18 nm / 33 km - - - 549 ft / 167 m (AMSL)
26 Localiser ILJ 109.15 MHz 18 nm / 33 km 254.35° 254.86° - 526 ft / 160 m (AMSL)
26 Glidescope ILJ 109.15 MHz 10 nm / 19 km 254.36° 254.87° 3.00° 526 ft / 160 m (AMSL)
26 DME ILJ 109.15 MHz 18 nm / 33 km - - - 549 ft / 167 m (AMSL)

Popular Alternatives